createdAt,value
2022-10-07T00:01:05.388Z,4.45
2022-10-07T00:03:35.024Z,4.57
2022-10-07T00:06:05.181Z,3.90
2022-10-07T00:08:33.836Z,3.60
2022-10-07T00:11:06.343Z,3.95
2022-10-07T00:13:34.238Z,4.38
2022-10-07T00:16:07.220Z,4.10
2022-10-07T00:18:38.649Z,3.92
2022-10-07T00:21:08.867Z,4.45
2022-10-07T00:23:37.257Z,4.45
2022-10-07T00:26:06.964Z,3.88
2022-10-07T00:28:36.284Z,4.38
2022-10-07T00:31:06.055Z,4.05
2022-10-07T00:33:36.983Z,3.45
2022-10-07T00:36:08.237Z,4.05
2022-10-07T00:38:36.187Z,3.75
2022-10-07T00:41:04.170Z,4.82
2022-10-07T00:43:33.054Z,4.50
2022-10-07T00:46:07.172Z,4.00
2022-10-07T00:48:39.767Z,3.85
2022-10-07T00:51:09.412Z,4.55
2022-10-07T00:53:40.587Z,4.40
2022-10-07T00:56:09.836Z,4.85
2022-10-07T00:58:41.022Z,5.55
2022-10-07T01:01:09.733Z,4.80
2022-10-07T01:03:39.727Z,4.30
2022-10-07T01:06:07.783Z,4.45
2022-10-07T01:08:35.879Z,4.40
2022-10-07T01:11:14.963Z,4.15
2022-10-07T01:13:55.843Z,5.30
2022-10-07T01:16:30.721Z,4.43
2022-10-07T01:19:14.624Z,4.28
2022-10-07T01:21:53.965Z,4.38
2022-10-07T01:24:33.303Z,4.25
2022-10-07T01:27:07.910Z,5.03
2022-10-07T01:29:39.395Z,4.20
2022-10-07T01:32:14.095Z,4.60
2022-10-07T01:34:44.251Z,4.38
2022-10-07T01:37:16.536Z,3.90
2022-10-07T01:39:50.591Z,4.65
2022-10-07T01:42:20.640Z,5.00
2022-10-07T01:44:53.538Z,4.35
2022-10-07T01:47:21.512Z,4.50
2022-10-07T01:49:49.494Z,4.13
2022-10-07T01:52:41.024Z,4.28
2022-10-07T01:55:19.917Z,4.05
2022-10-07T01:57:58.328Z,4.47
2022-10-07T02:00:26.675Z,4.78
2022-10-07T02:03:25.890Z,4.80
2022-10-07T02:06:01.839Z,3.70
2022-10-07T02:08:34.980Z,3.67
2022-10-07T02:11:16.128Z,5.28
2022-10-07T02:13:56.050Z,4.65
2022-10-07T02:16:30.331Z,4.88
2022-10-07T02:19:02.008Z,4.10
2022-10-07T02:21:32.983Z,4.50
2022-10-07T02:24:03.198Z,4.15
2022-10-07T02:26:33.866Z,5.10
2022-10-07T02:29:05.741Z,4.03
2022-10-07T02:31:35.643Z,4.28
2022-10-07T02:34:05.902Z,3.72
2022-10-07T02:36:39.033Z,4.47
2022-10-07T02:39:08.195Z,4.55
2022-10-07T02:41:41.894Z,4.85
2022-10-07T02:44:25.917Z,4.28
2022-10-07T02:46:58.167Z,4.35
2022-10-07T02:49:31.263Z,4.53
2022-10-07T02:52:02.893Z,3.53
2022-10-07T02:54:35.927Z,3.70
2022-10-07T02:57:06.747Z,4.93
2022-10-07T02:59:37.715Z,4.40
2022-10-07T03:02:08.028Z,4.32
2022-10-07T03:04:36.087Z,4.93
2022-10-07T03:07:05.407Z,4.80
2022-10-07T03:09:33.830Z,4.70
2022-10-07T03:12:01.719Z,3.78
2022-10-07T03:14:30.083Z,4.28
2022-10-07T03:16:59.361Z,4.28
2022-10-07T03:19:27.229Z,4.10
2022-10-07T03:21:56.900Z,4.70
2022-10-07T03:24:24.738Z,4.00
2022-10-07T03:26:52.624Z,5.07
2022-10-07T03:29:20.790Z,4.93
2022-10-07T03:31:48.820Z,3.90
2022-10-07T03:34:18.065Z,3.78
2022-10-07T03:36:45.906Z,5.05
2022-10-07T03:39:13.888Z,4.57
2022-10-07T03:41:42.311Z,5.28
2022-10-07T03:44:10.207Z,4.65
2022-10-07T03:46:38.186Z,4.15
2022-10-07T03:49:06.145Z,4.03
2022-10-07T03:51:36.330Z,4.40
2022-10-07T03:54:04.375Z,5.22
2022-10-07T03:56:32.379Z,4.43
2022-10-07T03:59:00.644Z,3.83
2022-10-07T04:01:31.736Z,3.65
2022-10-07T04:04:00.480Z,3.70
2022-10-07T04:06:29.774Z,4.25
2022-10-07T04:08:59.078Z,5.32
2022-10-07T04:11:27.575Z,4.07
2022-10-07T04:13:55.717Z,4.43
2022-10-07T04:16:23.692Z,4.07
2022-10-07T04:18:55.868Z,4.13
2022-10-07T04:21:24.137Z,4.72
2022-10-07T04:23:52.347Z,4.22
2022-10-07T04:26:21.745Z,4.45
2022-10-07T04:28:50.693Z,5.10
2022-10-07T04:31:18.711Z,3.78
2022-10-07T04:33:46.706Z,4.55
2022-10-07T04:36:14.611Z,4.55
2022-10-07T04:38:44.330Z,4.40
2022-10-07T04:41:12.170Z,4.65
2022-10-07T04:43:41.395Z,3.63
2022-10-07T04:46:14.341Z,5.10
2022-10-07T04:48:45.732Z,3.90
2022-10-07T04:51:14.253Z,4.45
2022-10-07T04:53:42.124Z,4.95
2022-10-07T04:56:11.171Z,3.97
2022-10-07T04:58:39.278Z,5.20
2022-10-07T05:01:11.434Z,3.95
2022-10-07T05:03:41.108Z,5.45
2022-10-07T05:06:11.924Z,5.87
2022-10-07T05:08:39.981Z,3.75
2022-10-07T05:11:07.819Z,3.60
2022-10-07T05:13:38.504Z,4.90
2022-10-07T05:16:09.867Z,3.92
2022-10-07T05:18:40.058Z,4.05
2022-10-07T05:21:08.900Z,4.50
2022-10-07T05:23:37.199Z,5.18
2022-10-07T05:26:08.092Z,3.53
2022-10-07T05:28:36.656Z,4.47
2022-10-07T05:31:09.502Z,4.55
2022-10-07T05:33:39.535Z,4.45
2022-10-07T05:36:09.896Z,4.65
2022-10-07T05:38:37.983Z,5.15
2022-10-07T05:41:07.854Z,4.47
2022-10-07T05:43:38.073Z,4.15
2022-10-07T05:46:08.895Z,4.50
2022-10-07T05:48:39.565Z,5.05
2022-10-07T05:51:09.920Z,3.95
2022-10-07T05:53:41.238Z,4.53
2022-10-07T05:56:12.144Z,4.68
2022-10-07T05:58:40.131Z,4.43
2022-10-07T06:01:14.270Z,4.43
2022-10-07T06:03:42.763Z,4.53
2022-10-07T06:06:12.172Z,4.47
2022-10-07T06:08:39.993Z,4.30
2022-10-07T06:11:28.057Z,3.95
2022-10-07T06:13:56.205Z,4.25
2022-10-07T06:16:25.274Z,4.72
2022-10-07T06:18:53.846Z,4.90
2022-10-07T06:21:27.900Z,4.00
2022-10-07T06:23:57.943Z,4.68
2022-10-07T06:26:26.187Z,4.50
2022-10-07T06:28:54.104Z,4.53
2022-10-07T06:31:25.364Z,4.35
2022-10-07T06:33:53.723Z,4.15
2022-10-07T06:36:23.377Z,4.07
2022-10-07T06:38:52.363Z,4.38
2022-10-07T06:41:21.212Z,4.45
2022-10-07T06:43:49.682Z,4.15
2022-10-07T06:46:19.428Z,4.13
2022-10-07T06:48:47.392Z,3.88
2022-10-07T06:51:16.514Z,4.22
2022-10-07T06:53:46.177Z,4.15
2022-10-07T06:56:15.379Z,6.10
2022-10-07T06:58:43.736Z,5.18
2022-10-07T07:01:12.468Z,4.50
2022-10-07T07:03:40.727Z,4.07
2022-10-07T07:06:11.413Z,4.10
2022-10-07T07:08:41.290Z,4.82
2022-10-07T07:11:26.921Z,4.72
2022-10-07T07:13:55.562Z,4.97
2022-10-07T07:16:24.327Z,4.15
2022-10-07T07:18:53.754Z,4.40
2022-10-07T07:21:22.308Z,3.92
2022-10-07T07:23:51.220Z,3.35
2022-10-07T07:26:21.436Z,5.20
2022-10-07T07:28:52.802Z,3.80
2022-10-07T07:31:21.308Z,3.85
2022-10-07T07:33:52.562Z,4.07
2022-10-07T07:36:23.343Z,4.10
2022-10-07T07:38:53.192Z,3.35
2022-10-07T07:41:24.761Z,4.15
2022-10-07T07:43:54.122Z,4.63
2022-10-07T07:46:25.784Z,3.53
2022-10-07T07:48:53.994Z,4.00
2022-10-07T07:51:22.787Z,4.53
2022-10-07T07:53:51.115Z,4.63
2022-10-07T07:56:19.774Z,3.05
2022-10-07T07:58:49.243Z,4.13
2022-10-07T08:01:18.904Z,3.58
2022-10-07T08:03:49.149Z,5.50
2022-10-07T08:06:19.593Z,3.67
2022-10-07T08:11:17.390Z,3.75
2022-10-07T08:13:45.908Z,3.72
2022-10-07T08:16:20.093Z,3.67
2022-10-07T08:18:52.395Z,3.95
2022-10-07T08:21:23.105Z,3.83
2022-10-07T08:23:54.444Z,3.47
2022-10-07T08:26:22.400Z,4.50
2022-10-07T08:28:50.597Z,3.45
2022-10-07T08:31:21.405Z,3.78
2022-10-07T08:33:51.197Z,4.55
2022-10-07T08:36:21.632Z,3.55
2022-10-07T08:41:36.513Z,3.80
2022-10-07T08:44:17.775Z,4.18
2022-10-07T08:46:56.238Z,3.80
2022-10-07T08:49:33.812Z,3.88
2022-10-07T08:52:07.830Z,3.58
2022-10-07T08:54:35.708Z,3.05
2022-10-07T08:57:23.267Z,3.13
2022-10-07T08:59:59.332Z,2.60
2022-10-07T09:02:36.517Z,2.90
2022-10-07T09:05:15.709Z,3.35
2022-10-07T09:07:48.123Z,3.22
2022-10-07T09:10:32.107Z,3.38
2022-10-07T09:13:03.750Z,3.72
2022-10-07T09:15:40.254Z,4.05
2022-10-07T09:18:16.373Z,3.22
2022-10-07T09:20:49.631Z,3.13
2022-10-07T09:23:17.929Z,3.78
2022-10-07T09:25:46.004Z,3.72
2022-10-07T09:28:17.891Z,3.67
2022-10-07T09:30:46.019Z,3.45
2022-10-07T09:33:17.785Z,3.08
2022-10-07T09:35:57.386Z,3.70
2022-10-07T09:38:35.982Z,3.20
2022-10-07T09:41:20.520Z,3.13
2022-10-07T09:43:59.591Z,3.28
2022-10-07T09:46:42.255Z,3.75
2022-10-07T09:49:30.953Z,3.50
2022-10-07T09:54:20.251Z,2.72
2022-10-07T09:56:48.496Z,3.15
2022-10-07T09:59:21.393Z,3.30
2022-10-07T10:01:55.738Z,2.90
2022-10-07T10:04:30.674Z,3.05
2022-10-07T10:07:04.504Z,2.72
2022-10-07T10:09:35.392Z,3.92
2022-10-07T10:12:12.286Z,3.35
2022-10-07T10:14:50.079Z,3.83
2022-10-07T10:17:31.609Z,2.90
2022-10-07T10:20:43.549Z,3.85
2022-10-07T10:23:27.840Z,2.38
2022-10-07T10:26:33.399Z,3.03
2022-10-07T10:29:12.004Z,3.13
2022-10-07T10:32:05.310Z,2.72
2022-10-07T10:34:45.056Z,2.85
2022-10-07T10:37:19.138Z,2.88
2022-10-07T10:40:01.120Z,2.60
2022-10-07T10:42:42.141Z,3.28
2022-10-07T10:45:25.244Z,2.83
2022-10-07T10:48:07.456Z,3.08
2022-10-07T10:50:44.656Z,3.72
2022-10-07T10:53:27.536Z,2.50
2022-10-07T10:56:17.206Z,2.90
2022-10-07T10:58:58.218Z,3.10
2022-10-07T11:01:35.404Z,3.60
2022-10-07T11:04:39.611Z,2.67
2022-10-07T11:07:20.697Z,3.17
2022-10-07T11:09:52.561Z,3.65
2022-10-07T11:12:26.465Z,2.65
2022-10-07T11:15:02.743Z,2.15
2022-10-07T11:17:36.446Z,3.15
2022-10-07T11:20:16.851Z,3.15
2022-10-07T11:25:25.666Z,2.83
2022-10-07T11:28:00.452Z,2.38
2022-10-07T11:30:37.963Z,3.08
2022-10-07T11:33:11.368Z,2.50
2022-10-07T11:35:47.690Z,2.95
2022-10-07T11:38:18.508Z,2.90
2022-10-07T11:40:50.429Z,2.67
2022-10-07T11:43:21.028Z,2.53
2022-10-07T11:45:54.788Z,2.20
2022-10-07T11:48:27.644Z,2.47
2022-10-07T11:51:02.414Z,2.40
2022-10-07T11:53:34.627Z,3.40
2022-10-07T11:56:05.744Z,2.58
2022-10-07T11:58:37.385Z,2.38
2022-10-07T12:01:39.817Z,3.40
2022-10-07T12:04:35.305Z,2.60
2022-10-07T12:07:38.263Z,2.33
2022-10-07T12:10:22.020Z,2.67
2022-10-07T12:13:37.638Z,2.30
2022-10-07T12:16:38.909Z,2.55
2022-10-07T12:19:23.486Z,2.65
2022-10-07T12:22:19.904Z,2.72
2022-10-07T12:25:29.283Z,2.65
2022-10-07T12:27:59.281Z,2.83
2022-10-07T12:30:50.596Z,2.10
2022-10-07T12:33:29.915Z,2.10
2022-10-07T12:35:57.828Z,2.15
2022-10-07T12:40:49.649Z,2.92
2022-10-07T12:43:28.175Z,2.13
2022-10-07T12:46:00.610Z,3.10
2022-10-07T12:48:35.908Z,2.72
2022-10-07T12:51:05.966Z,1.73
2022-10-07T12:53:41.634Z,2.05
2022-10-07T12:56:21.091Z,2.95
2022-10-07T12:59:57.714Z,2.45
2022-10-07T13:03:15.338Z,2.72
2022-10-07T13:06:36.822Z,2.38
2022-10-07T13:09:41.251Z,2.40
2022-10-07T13:12:27.633Z,1.80
2022-10-07T13:15:06.022Z,2.13
2022-10-07T13:17:44.719Z,2.10
2022-10-07T13:20:35.973Z,2.63
2022-10-07T13:23:12.666Z,2.13
2022-10-07T13:25:46.256Z,2.45
2022-10-07T13:28:17.964Z,1.95
2022-10-07T13:30:47.071Z,2.15
2022-10-07T13:33:28.047Z,2.28
2022-10-07T13:36:17.634Z,2.47
2022-10-07T13:38:47.290Z,2.25
2022-10-07T13:41:26.146Z,2.43
2022-10-07T13:44:00.457Z,1.90
2022-10-07T13:46:31.335Z,2.13
2022-10-07T13:49:00.518Z,2.05
2022-10-07T13:51:32.833Z,2.30
2022-10-07T13:54:03.111Z,2.33
2022-10-07T13:56:33.740Z,2.17
2022-10-07T13:59:04.523Z,1.85
2022-10-07T14:01:37.867Z,2.40
2022-10-07T14:04:29.799Z,2.30
2022-10-07T14:07:01.156Z,2.20
2022-10-07T14:09:45.554Z,2.30
2022-10-07T14:12:18.119Z,2.33
2022-10-07T14:14:49.828Z,2.38
2022-10-07T14:17:28.355Z,2.25
2022-10-07T14:19:59.185Z,1.90
2022-10-07T14:22:32.216Z,2.10
2022-10-07T14:25:03.567Z,1.85
2022-10-07T14:27:53.177Z,2.20
2022-10-07T14:30:56.132Z,2.15
2022-10-07T14:33:47.699Z,2.33
2022-10-07T14:36:18.076Z,2.67
2022-10-07T14:38:47.564Z,2.15
2022-10-07T14:41:18.248Z,2.08
2022-10-07T14:43:47.990Z,1.90
2022-10-07T14:46:20.680Z,1.30
2022-10-07T14:48:49.520Z,1.60
2022-10-07T14:51:20.086Z,1.25
2022-10-07T14:53:51.255Z,1.30
2022-10-07T14:56:25.223Z,1.50
2022-10-07T14:58:54.175Z,1.33
2022-10-07T15:01:23.785Z,1.45
2022-10-07T15:03:51.715Z,1.50
2022-10-07T15:06:21.489Z,1.48
2022-10-07T15:08:52.433Z,1.77
2022-10-07T15:11:23.332Z,1.45
2022-10-07T15:13:51.383Z,1.42
2022-10-07T15:16:22.068Z,2.15
2022-10-07T15:18:54.366Z,1.70
2022-10-07T15:21:23.417Z,1.88
2022-10-07T15:23:53.157Z,1.50
2022-10-07T15:26:25.369Z,1.17
2022-10-07T15:28:54.340Z,1.65
2022-10-07T15:31:23.382Z,1.58
2022-10-07T15:33:51.607Z,1.65
2022-10-07T15:36:20.908Z,1.77
2022-10-07T15:38:49.449Z,1.30
2022-10-07T15:41:31.528Z,1.40
2022-10-07T15:44:00.037Z,1.65
2022-10-07T15:46:29.017Z,1.60
2022-10-07T15:48:57.306Z,1.40
2022-10-07T15:51:28.086Z,1.55
2022-10-07T15:53:55.994Z,1.50
2022-10-07T15:56:25.468Z,1.77
2022-10-07T15:58:54.167Z,1.70
2022-10-07T16:01:22.302Z,1.92
2022-10-07T16:03:50.927Z,1.88
2022-10-07T16:06:21.651Z,1.52
2022-10-07T16:08:52.088Z,1.40
2022-10-07T16:11:21.388Z,1.80
2022-10-07T16:13:50.263Z,1.95
2022-10-07T16:16:22.618Z,1.60
2022-10-07T16:18:52.225Z,1.80
2022-10-07T16:21:23.142Z,1.77
2022-10-07T16:23:55.941Z,1.90
2022-10-07T16:26:26.961Z,1.70
2022-10-07T16:29:12.951Z,1.63
2022-10-07T16:31:42.534Z,1.50
2022-10-07T16:34:13.418Z,1.57
2022-10-07T16:36:45.536Z,2.25
2022-10-07T16:39:15.889Z,1.65
2022-10-07T16:41:44.214Z,1.65
2022-10-07T16:44:12.410Z,1.85
2022-10-07T16:46:40.793Z,1.88
2022-10-07T16:49:11.697Z,1.60
2022-10-07T16:51:39.539Z,1.42
2022-10-07T16:54:12.956Z,2.00
2022-10-07T16:56:46.101Z,2.25
2022-10-07T16:59:19.735Z,1.55
2022-10-07T17:01:50.945Z,2.10
2022-10-07T17:04:19.166Z,1.50
2022-10-07T17:06:47.121Z,1.85
2022-10-07T17:09:17.435Z,1.60
2022-10-07T17:11:47.661Z,1.70
2022-10-07T17:14:17.646Z,2.10
2022-10-07T17:16:47.268Z,1.45
2022-10-07T17:19:17.474Z,2.07
2022-10-07T17:21:47.076Z,1.75
2022-10-07T17:24:15.980Z,1.50
2022-10-07T17:26:44.113Z,1.95
2022-10-07T17:29:18.494Z,2.10
2022-10-07T17:31:50.186Z,1.67
2022-10-07T17:34:20.507Z,2.05
2022-10-07T17:36:48.852Z,2.05
2022-10-07T17:39:17.332Z,1.83
2022-10-07T17:41:45.344Z,1.42
2022-10-07T17:44:17.510Z,2.05
2022-10-07T17:46:45.667Z,1.25
2022-10-07T17:49:14.310Z,1.30
2022-10-07T17:51:44.116Z,1.50
2022-10-07T17:54:13.995Z,2.45
2022-10-07T17:56:44.494Z,1.63
2022-10-07T17:59:12.582Z,2.05
2022-10-07T18:01:42.416Z,1.80
2022-10-07T18:04:13.158Z,1.92
2022-10-07T18:06:43.333Z,2.30
2022-10-07T18:09:17.300Z,2.00
2022-10-07T18:12:03.070Z,1.98
2022-10-07T18:14:53.273Z,1.80
2022-10-07T18:17:24.705Z,1.83
2022-10-07T18:19:53.038Z,2.10
2022-10-07T18:22:21.064Z,2.30
2022-10-07T18:24:49.799Z,1.90
2022-10-07T18:27:17.687Z,2.30
2022-10-07T18:29:45.890Z,2.58
2022-10-07T18:32:13.868Z,2.25
2022-10-07T18:34:43.248Z,2.13
2022-10-07T18:37:11.123Z,2.90
2022-10-07T18:39:39.256Z,2.30
2022-10-07T18:42:07.572Z,1.92
2022-10-07T18:44:35.487Z,2.65
2022-10-07T18:47:03.395Z,2.78
2022-10-07T18:49:31.234Z,2.58
2022-10-07T18:52:01.494Z,2.15
2022-10-07T18:54:29.331Z,2.35
2022-10-07T18:56:57.447Z,2.17
2022-10-07T18:59:25.299Z,2.28
2022-10-07T19:01:55.544Z,1.92
2022-10-07T19:04:23.719Z,1.73
2022-10-07T19:06:51.584Z,2.17
2022-10-07T19:09:22.117Z,2.45
2022-10-07T19:14:17.529Z,1.90
2022-10-07T19:16:48.988Z,2.03
2022-10-07T19:19:19.309Z,2.47
2022-10-07T19:21:49.177Z,2.35
2022-10-07T19:24:17.659Z,2.38
2022-10-07T19:26:50.020Z,2.15
2022-10-07T19:29:18.866Z,2.42
2022-10-07T19:31:48.908Z,2.15
2022-10-07T19:34:18.607Z,1.83
2022-10-07T19:36:47.358Z,2.00
2022-10-07T19:39:16.433Z,1.70
2022-10-07T19:41:44.371Z,1.98
2022-10-07T19:44:14.453Z,2.15
2022-10-07T19:46:42.612Z,2.20
2022-10-07T19:49:11.650Z,2.30
2022-10-07T19:51:41.970Z,2.08
2022-10-07T19:54:12.954Z,2.20
2022-10-07T19:56:41.898Z,2.10
2022-10-07T19:59:11.622Z,2.00
2022-10-07T20:01:42.453Z,4.03
2022-10-07T20:04:13.275Z,2.78
2022-10-07T20:06:41.602Z,2.20
2022-10-07T20:09:11.560Z,2.22
2022-10-07T20:11:39.600Z,2.00
2022-10-07T20:14:07.697Z,2.33
2022-10-07T20:16:37.309Z,1.98
2022-10-07T20:19:07.869Z,2.67
2022-10-07T20:24:08.526Z,2.60
2022-10-07T20:26:38.451Z,2.80
2022-10-07T20:29:10.027Z,2.38
2022-10-07T20:31:40.440Z,2.00
2022-10-07T20:36:41.399Z,2.28
2022-10-07T20:39:31.760Z,2.15
2022-10-07T20:42:17.136Z,2.10
2022-10-07T20:44:49.336Z,2.10
2022-10-07T20:47:17.978Z,2.10
2022-10-07T20:49:48.770Z,2.42
2022-10-07T20:52:18.681Z,2.38
2022-10-07T20:54:47.516Z,1.60
2022-10-07T20:57:21.442Z,1.75
2022-10-07T20:59:49.520Z,2.25
2022-10-07T21:02:19.135Z,2.13
2022-10-07T21:04:48.579Z,2.47
2022-10-07T21:07:20.560Z,2.07
2022-10-07T21:09:48.614Z,2.95
2022-10-07T21:12:18.263Z,2.35
2022-10-07T21:14:48.476Z,2.30
2022-10-07T21:17:17.271Z,2.20
2022-10-07T21:19:45.309Z,2.40
2022-10-07T21:22:14.547Z,2.03
2022-10-07T21:24:42.415Z,2.17
2022-10-07T21:27:10.477Z,2.83
2022-10-07T21:29:41.041Z,1.95
2022-10-07T21:32:09.731Z,1.80
2022-10-07T21:34:37.785Z,2.30
2022-10-07T21:37:05.759Z,1.88
2022-10-07T21:39:35.018Z,1.88
2022-10-07T21:42:03.019Z,1.60
2022-10-07T21:44:33.399Z,1.73
2022-10-07T21:49:29.065Z,1.67
2022-10-07T21:51:56.904Z,2.10
2022-10-07T21:54:24.749Z,1.60
2022-10-07T21:56:53.988Z,1.95
2022-10-07T21:59:21.852Z,1.80
2022-10-07T22:01:49.756Z,2.22
2022-10-07T22:04:20.078Z,1.98
2022-10-07T22:07:05.561Z,1.85
2022-10-07T22:09:33.599Z,1.85
2022-10-07T22:12:02.801Z,2.10
2022-10-07T22:14:30.754Z,1.80
2022-10-07T22:16:58.847Z,2.00
2022-10-07T22:19:26.773Z,1.75
2022-10-07T22:21:55.005Z,2.20
2022-10-07T22:24:24.064Z,2.10
2022-10-07T22:26:52.246Z,2.15
2022-10-07T22:29:23.097Z,2.33
2022-10-07T22:31:51.036Z,1.92
2022-10-07T22:34:36.642Z,1.70
2022-10-07T22:37:07.731Z,2.00
2022-10-07T22:39:35.716Z,1.40
2022-10-07T22:42:06.444Z,1.70
2022-10-07T22:44:38.543Z,2.25
2022-10-07T22:47:06.466Z,2.63
2022-10-07T22:49:34.344Z,2.28
2022-10-07T22:52:02.215Z,2.28
2022-10-07T22:54:30.562Z,2.05
2022-10-07T22:56:58.446Z,2.05
2022-10-07T22:59:26.343Z,2.42
2022-10-07T23:01:55.547Z,2.03
2022-10-07T23:04:23.373Z,3.65
2022-10-07T23:06:51.244Z,2.55
2022-10-07T23:09:19.286Z,2.60
2022-10-07T23:11:47.162Z,2.58
2022-10-07T23:14:15.075Z,2.60
2022-10-07T23:16:44.811Z,2.60
2022-10-07T23:19:14.352Z,2.42
2022-10-07T23:21:42.256Z,2.33
2022-10-07T23:24:11.644Z,2.38
2022-10-07T23:26:39.524Z,1.83
2022-10-07T23:29:08.661Z,2.42
2022-10-07T23:31:36.662Z,2.15
2022-10-07T23:34:06.613Z,2.60
2022-10-07T23:36:35.842Z,2.90
2022-10-07T23:39:03.953Z,2.03
2022-10-07T23:41:32.032Z,2.03
2022-10-07T23:44:01.961Z,2.15
2022-10-07T23:46:33.162Z,2.25
2022-10-07T23:49:01.399Z,1.83
2022-10-07T23:51:29.900Z,1.95
2022-10-07T23:53:59.839Z,2.03
2022-10-07T23:56:27.707Z,2.42
2022-10-07T23:58:55.571Z,1.77
